AAR551 RKSI-LTFM
Flight info
| Callsign | AAR551 |
|---|---|
| Flight time | N/A |
| Altitude | 32000 |
| Route | NOPIK2Y NOPIK Y697 AGAVO/K0913S0980 A591 IKEKA W4 HCH W200 DOVIV W55 PAMRU W34 LADIX/K0902S1040 B339 ASILA A575 UPREK W28 LAGEB W66 NUKTI B215 KABDO W119 GOBOK A343 RULAD/K0885F360 M610 ARBOL Z621 ELAHA N147 OTBOR/N0482F360 A480 TIMGA/N0479F380 B476 METKA L88 NIJAT N644 LAGAS N61 NOLGA UG261 TBN UW71 CRM UL746 GOKPA UM10 HAKAN UN644 GUMRU UT315 NUGBA |
| Aircraft | B772/H-SDE2E3FGHIJ5LORVWXY/LB1D1 |
Departure
| Time | 2026-05-08 02:01 |
|---|---|
| Airport | Incheon International Airport (RKSI) |
Arrival
| Time | N/A |
|---|---|
| Airport | İstanbul Airport (LTFM) |
| Time | Latitude | Longitude | Altitude | Speed | Heading |
|---|---|---|---|---|---|
| 2026-05-07 23:54 | 37.46859 | 126.43987 | 37 ft | 0 kts | 219° |
| 2026-05-08 01:40 | 37.46869 | 126.43997 | 36 ft | 4 kts | 219° |
| 2026-05-08 01:40 | 37.46890 | 126.44018 | 35 ft | 4 kts | 219° |
| 2026-05-08 01:41 | 37.46910 | 126.44039 | 36 ft | 3 kts | 219° |
| 2026-05-08 01:41 | 37.46929 | 126.44056 | 35 ft | 4 kts | 196° |
| 2026-05-08 01:41 | 37.46948 | 126.44057 | 36 ft | 4 kts | 152° |
| 2026-05-08 01:41 | 37.46968 | 126.44038 | 34 ft | 4 kts | 132° |
| 2026-05-08 01:42 | 37.46978 | 126.44024 | 33 ft | 1 kts | 134° |
| 2026-05-08 01:42 | 37.46979 | 126.44023 | 33 ft | 0 kts | 134° |
| 2026-05-08 01:46 | 37.46977 | 126.44025 | 33 ft | 2 kts | 134° |
| 2026-05-08 01:46 | 37.46964 | 126.44043 | 33 ft | 4 kts | 134° |
| 2026-05-08 01:46 | 37.46941 | 126.44072 | 35 ft | 7 kts | 134° |
| 2026-05-08 01:46 | 37.46899 | 126.44128 | 37 ft | 11 kts | 134° |
| 2026-05-08 01:47 | 37.46842 | 126.44203 | 37 ft | 13 kts | 134° |
| 2026-05-08 01:47 | 37.46776 | 126.44278 | 37 ft | 13 kts | 145° |
| 2026-05-08 01:47 | 37.46704 | 126.44341 | 37 ft | 13 kts | 145° |
| 2026-05-08 01:48 | 37.46597 | 126.44390 | 37 ft | 7 kts | 224° |
| 2026-05-08 01:48 | 37.46569 | 126.44341 | 37 ft | 7 kts | 235° |
| 2026-05-08 01:48 | 37.46540 | 126.44288 | 37 ft | 8 kts | 234° |
| 2026-05-08 01:48 | 37.46507 | 126.44230 | 37 ft | 8 kts | 234° |
| 2026-05-08 01:49 | 37.46471 | 126.44167 | 37 ft | 9 kts | 234° |
| 2026-05-08 01:49 | 37.46433 | 126.44099 | 37 ft | 10 kts | 234° |
| 2026-05-08 01:49 | 37.46394 | 126.44030 | 37 ft | 10 kts | 234° |
| 2026-05-08 01:49 | 37.46354 | 126.43961 | 37 ft | 10 kts | 234° |
| 2026-05-08 01:50 | 37.46315 | 126.43892 | 37 ft | 10 kts | 234° |
| 2026-05-08 01:50 | 37.46276 | 126.43823 | 37 ft | 10 kts | 234° |
| 2026-05-08 01:50 | 37.46236 | 126.43754 | 37 ft | 10 kts | 234° |
| 2026-05-08 01:50 | 37.46197 | 126.43685 | 37 ft | 10 kts | 234° |
| 2026-05-08 01:51 | 37.46158 | 126.43616 | 37 ft | 10 kts | 234° |
| 2026-05-08 01:51 | 37.46119 | 126.43547 | 37 ft | 10 kts | 234° |
| 2026-05-08 01:51 | 37.46080 | 126.43477 | 37 ft | 10 kts | 235° |
| 2026-05-08 01:51 | 37.46041 | 126.43408 | 37 ft | 10 kts | 235° |
| 2026-05-08 01:52 | 37.46002 | 126.43338 | 37 ft | 10 kts | 235° |
| 2026-05-08 01:52 | 37.45963 | 126.43268 | 37 ft | 10 kts | 235° |
| 2026-05-08 01:52 | 37.45917 | 126.43211 | 37 ft | 10 kts | 192° |
| 2026-05-08 01:52 | 37.45856 | 126.43245 | 37 ft | 10 kts | 144° |
| 2026-05-08 01:53 | 37.45801 | 126.43294 | 37 ft | 10 kts | 144° |
| 2026-05-08 01:53 | 37.45740 | 126.43349 | 37 ft | 12 kts | 144° |
| 2026-05-08 01:53 | 37.45665 | 126.43415 | 37 ft | 14 kts | 144° |
| 2026-05-08 01:53 | 37.45577 | 126.43493 | 35 ft | 16 kts | 144° |
| 2026-05-08 01:54 | 37.45487 | 126.43574 | 37 ft | 16 kts | 144° |
| 2026-05-08 01:54 | 37.45396 | 126.43655 | 34 ft | 16 kts | 144° |
| 2026-05-08 01:54 | 37.45304 | 126.43736 | 35 ft | 16 kts | 144° |
| 2026-05-08 01:54 | 37.45214 | 126.43817 | 36 ft | 16 kts | 144° |
| 2026-05-08 01:55 | 37.45124 | 126.43896 | 37 ft | 16 kts | 144° |
| 2026-05-08 01:55 | 37.45033 | 126.43977 | 37 ft | 16 kts | 144° |
| 2026-05-08 01:55 | 37.44942 | 126.44058 | 37 ft | 16 kts | 144° |
| 2026-05-08 01:55 | 37.44851 | 126.44138 | 37 ft | 16 kts | 144° |
| 2026-05-08 01:56 | 37.44760 | 126.44219 | 37 ft | 16 kts | 144° |
| 2026-05-08 01:56 | 37.44669 | 126.44299 | 35 ft | 16 kts | 144° |
| 2026-05-08 01:56 | 37.44582 | 126.44378 | 37 ft | 12 kts | 144° |
| 2026-05-08 01:56 | 37.44530 | 126.44425 | 37 ft | 6 kts | 151° |
| 2026-05-08 01:57 | 37.44491 | 126.44412 | 37 ft | 6 kts | 225° |
| 2026-05-08 01:57 | 37.44464 | 126.44368 | 37 ft | 6 kts | 234° |
| 2026-05-08 01:57 | 37.44439 | 126.44323 | 37 ft | 6 kts | 234° |
| 2026-05-08 01:57 | 37.44427 | 126.44302 | 37 ft | 0 kts | 234° |
| 2026-05-08 01:59 | 37.44425 | 126.44300 | 37 ft | 2 kts | 234° |
| 2026-05-08 01:59 | 37.44410 | 126.44272 | 37 ft | 6 kts | 234° |
| 2026-05-08 01:59 | 37.44382 | 126.44223 | 37 ft | 8 kts | 234° |
| 2026-05-08 01:59 | 37.44374 | 126.44161 | 37 ft | 8 kts | 295° |
| 2026-05-08 02:00 | 37.44411 | 126.44114 | 37 ft | 8 kts | 324° |
| 2026-05-08 02:00 | 37.44489 | 126.44044 | 37 ft | 27 kts | 324° |
| 2026-05-08 02:00 | 37.44838 | 126.43733 | 37 ft | 97 kts | 324° |
| 2026-05-08 02:00 | 37.45581 | 126.43072 | 37 ft | 162 kts | 324° |
| 2026-05-08 02:01 | 37.46646 | 126.42128 | 255 ft | 196 kts | 322° |
| 2026-05-08 02:01 | 37.47682 | 126.41171 | 1378 ft | 175 kts | 314° |
| 2026-05-08 02:01 | 37.48370 | 126.39929 | 2334 ft | 168 kts | 304° |
| 2026-05-08 02:01 | 37.49071 | 126.38764 | 2847 ft | 167 kts | 311° |
| 2026-05-08 02:02 | 37.49842 | 126.37627 | 3217 ft | 171 kts | 310° |
| 2026-05-08 02:02 | 37.50332 | 126.36181 | 3292 ft | 191 kts | 284° |
| 2026-05-08 02:02 | 37.50442 | 126.34457 | 3477 ft | 207 kts | 278° |
| 2026-05-08 02:02 | 37.50494 | 126.32591 | 3769 ft | 221 kts | 277° |
| 2026-05-08 02:03 | 37.50541 | 126.30589 | 4107 ft | 231 kts | 277° |
| 2026-05-08 02:03 | 37.50587 | 126.28545 | 4671 ft | 235 kts | 277° |
| 2026-05-08 02:03 | 37.50632 | 126.26490 | 5260 ft | 237 kts | 277° |
| 2026-05-08 02:03 | 37.50679 | 126.24404 | 5878 ft | 238 kts | 277° |
| 2026-05-08 02:04 | 37.50728 | 126.22307 | 6499 ft | 240 kts | 278° |
| 2026-05-08 02:04 | 37.50778 | 126.20199 | 7066 ft | 242 kts | 278° |
| 2026-05-08 02:04 | 37.50590 | 126.18069 | 7498 ft | 255 kts | 258° |
| 2026-05-08 02:04 | 37.49731 | 126.16079 | 7989 ft | 266 kts | 245° |
| 2026-05-08 02:05 | 37.48692 | 126.14119 | 8543 ft | 268 kts | 245° |
| 2026-05-08 02:05 | 37.47658 | 126.12163 | 9140 ft | 269 kts | 245° |
| 2026-05-08 02:05 | 37.46617 | 126.10195 | 9706 ft | 271 kts | 245° |
| 2026-05-08 02:05 | 37.45586 | 126.08238 | 10204 ft | 274 kts | 246° |
| 2026-05-08 02:06 | 37.44494 | 126.06149 | 10374 ft | 291 kts | 245° |
| 2026-05-08 02:06 | 37.43362 | 126.03984 | 10516 ft | 308 kts | 245° |
| 2026-05-08 02:06 | 37.42146 | 126.01662 | 10655 ft | 326 kts | 244° |
| 2026-05-08 02:06 | 37.41337 | 126.00038 | 10727 ft | 330 kts | 250° |
| 2026-05-08 02:07 | 37.40631 | 125.96360 | 11041 ft | 327 kts | 274° |
| 2026-05-08 02:07 | 37.40617 | 125.93457 | 11476 ft | 335 kts | 275° |
| 2026-05-08 02:07 | 37.40602 | 125.90507 | 12141 ft | 338 kts | 275° |
| 2026-05-08 02:07 | 37.40588 | 125.88537 | 12615 ft | 339 kts | 275° |
| 2026-05-08 02:08 | 37.40553 | 125.84576 | 13543 ft | 342 kts | 275° |
| 2026-05-08 02:08 | 37.40531 | 125.82542 | 13973 ft | 345 kts | 275° |
| 2026-05-08 02:08 | 37.40496 | 125.79552 | 14557 ft | 347 kts | 274° |
| 2026-05-08 02:08 | 37.40457 | 125.76503 | 15184 ft | 348 kts | 274° |
| 2026-05-08 02:09 | 37.40420 | 125.73453 | 15798 ft | 349 kts | 274° |
| 2026-05-08 02:09 | 37.40377 | 125.70384 | 16397 ft | 351 kts | 274° |
| 2026-05-08 02:09 | 37.40333 | 125.67306 | 16982 ft | 353 kts | 274° |
| 2026-05-08 02:09 | 37.40289 | 125.64245 | 17558 ft | 355 kts | 274° |
| 2026-05-08 02:10 | 37.40248 | 125.61122 | 18133 ft | 357 kts | 274° |
| 2026-05-08 02:10 | 37.40207 | 125.57991 | 18638 ft | 359 kts | 274° |
| 2026-05-08 02:10 | 37.40166 | 125.54833 | 19095 ft | 361 kts | 274° |
| 2026-05-08 02:10 | 37.40123 | 125.51654 | 19543 ft | 364 kts | 274° |
| 2026-05-08 02:11 | 37.40080 | 125.48498 | 19988 ft | 366 kts | 274° |
| 2026-05-08 02:11 | 37.40034 | 125.45278 | 20432 ft | 368 kts | 274° |
| 2026-05-08 02:11 | 37.39988 | 125.42038 | 20877 ft | 370 kts | 273° |
| 2026-05-08 02:11 | 37.39940 | 125.38780 | 21322 ft | 372 kts | 273° |
| 2026-05-08 02:12 | 37.39892 | 125.35553 | 21756 ft | 374 kts | 273° |
| 2026-05-08 02:12 | 37.39842 | 125.32270 | 22184 ft | 376 kts | 273° |
| 2026-05-08 02:12 | 37.39791 | 125.28971 | 22629 ft | 378 kts | 273° |
| 2026-05-08 02:12 | 37.39739 | 125.25648 | 23071 ft | 380 kts | 273° |
| 2026-05-08 02:13 | 37.39686 | 125.22342 | 23502 ft | 382 kts | 272° |
| 2026-05-08 02:13 | 37.39631 | 125.18984 | 23873 ft | 384 kts | 272° |
| 2026-05-08 02:13 | 37.39575 | 125.15609 | 24242 ft | 385 kts | 272° |
| 2026-05-08 02:13 | 37.39518 | 125.12233 | 24621 ft | 386 kts | 273° |
| 2026-05-08 02:14 | 37.39460 | 125.08846 | 24973 ft | 387 kts | 272° |
| 2026-05-08 02:14 | 37.39402 | 125.05493 | 25312 ft | 388 kts | 272° |
| 2026-05-08 02:14 | 37.39342 | 125.02085 | 25647 ft | 390 kts | 273° |
| 2026-05-08 02:14 | 37.39281 | 124.98673 | 25979 ft | 391 kts | 272° |
| 2026-05-08 02:15 | 37.39219 | 124.95250 | 26310 ft | 392 kts | 273° |
| 2026-05-08 02:15 | 37.39156 | 124.91815 | 26609 ft | 393 kts | 273° |
| 2026-05-08 02:15 | 37.39092 | 124.88375 | 26895 ft | 394 kts | 273° |
| 2026-05-08 02:15 | 37.39026 | 124.84923 | 27187 ft | 396 kts | 273° |
| 2026-05-08 02:16 | 37.38959 | 124.81448 | 27467 ft | 397 kts | 272° |
| 2026-05-08 02:16 | 37.38889 | 124.78013 | 27745 ft | 398 kts | 272° |
| 2026-05-08 02:16 | 37.38817 | 124.74520 | 28010 ft | 399 kts | 273° |
| 2026-05-08 02:16 | 37.38745 | 124.71022 | 28254 ft | 400 kts | 273° |
| 2026-05-08 02:17 | 37.38671 | 124.67543 | 28504 ft | 401 kts | 273° |
| 2026-05-08 02:17 | 37.38596 | 124.64016 | 28728 ft | 402 kts | 273° |
| 2026-05-08 02:17 | 37.38520 | 124.60480 | 28953 ft | 403 kts | 273° |
| 2026-05-08 02:17 | 37.38444 | 124.56995 | 29157 ft | 404 kts | 273° |
| 2026-05-08 02:18 | 37.38366 | 124.53450 | 29353 ft | 405 kts | 273° |
| 2026-05-08 02:18 | 37.38286 | 124.49897 | 29547 ft | 406 kts | 273° |
| 2026-05-08 02:18 | 37.38050 | 124.46334 | 29683 ft | 412 kts | 265° |
| 2026-05-08 02:18 | 37.37356 | 124.42790 | 29826 ft | 419 kts | 260° |
| 2026-05-08 02:19 | 37.36411 | 124.39312 | 29997 ft | 423 kts | 256° |
| 2026-05-08 02:19 | 37.35220 | 124.35949 | 30196 ft | 431 kts | 249° |
| 2026-05-08 02:19 | 37.33635 | 124.32715 | 30389 ft | 434 kts | 246° |
| 2026-05-08 02:19 | 37.31983 | 124.29532 | 30573 ft | 434 kts | 246° |
| 2026-05-08 02:20 | 37.30336 | 124.26360 | 30752 ft | 433 kts | 246° |
| 2026-05-08 02:20 | 37.28705 | 124.23183 | 30932 ft | 432 kts | 246° |
| 2026-05-08 02:20 | 37.27091 | 124.20007 | 31115 ft | 430 kts | 246° |
| 2026-05-08 02:20 | 37.25486 | 124.16834 | 31294 ft | 429 kts | 246° |
| 2026-05-08 02:21 | 37.23889 | 124.13679 | 31463 ft | 429 kts | 246° |
| 2026-05-08 02:21 | 37.22271 | 124.10533 | 31628 ft | 429 kts | 245° |
| 2026-05-08 02:21 | 37.20621 | 124.07411 | 31791 ft | 429 kts | 245° |
| 2026-05-08 02:21 | 37.18991 | 124.04340 | 31954 ft | 428 kts | 245° |
| 2026-05-08 02:22 | 37.17346 | 124.01232 | 32081 ft | 428 kts | 245° |
| 2026-05-08 02:22 | 37.15709 | 123.98115 | 32125 ft | 428 kts | 246° |
| 2026-05-08 02:22 | 37.12482 | 123.91870 | 32206 ft | 425 kts | 246° |
| 2026-05-08 02:23 | 37.09277 | 123.85647 | 32194 ft | 424 kts | 246° |
| 2026-05-08 02:23 | 37.06089 | 123.79480 | 32199 ft | 423 kts | 246° |
| 2026-05-08 02:24 | 37.02882 | 123.73296 | 32216 ft | 422 kts | 246° |
| 2026-05-08 02:24 | 36.99677 | 123.67128 | 32210 ft | 421 kts | 246° |
| 2026-05-08 02:25 | 36.96503 | 123.61031 | 32210 ft | 421 kts | 246° |